Virner, California
Current Conditions -  °F | °C
As of 4:55 PM on Saturday 22 Nov 2014 (Local Time) from KPVF Reporting Station
Overcast Overcast  
Wind Chill: 50°   Ceiling: 100
Heat Index: 50°   Visibility: 0.25mi
Dew Point: 50°   Wind: 9mph
Humidity: 100%   Direction: 300°WNW
Pressure: 30.16"   Gusts: NA
Location:  38.9159°N, 120.725°W
Report Text: KPVF 230055Z AUTO 30008KT 1/4SM OVC001 10/10 A3016 RMK AO1 P0004
Loading
Personal Weather Stations






























Interactive Weather Map New forecast layout! Learn more

10-Day Weather Forecast

Advertisements
Track Severe Weather on mobile